sensor_id;sensor_type;location;lat;lon;timestamp;P1;durP1;ratioP1;P2;durP2;ratioP2
69150;SDS011;56257;52.196;13.870;2023-03-03T00:01:44;5.57;;;2.42;;
69150;SDS011;56257;52.196;13.870;2023-03-03T00:04:10;5.38;;;2.42;;
69150;SDS011;56257;52.196;13.870;2023-03-03T00:06:37;5.20;;;2.50;;
69150;SDS011;56257;52.196;13.870;2023-03-03T00:09:04;5.15;;;2.22;;
69150;SDS011;56257;52.196;13.870;2023-03-03T00:11:31;4.97;;;2.20;;
69150;SDS011;56257;52.196;13.870;2023-03-03T00:13:57;5.35;;;2.50;;
69150;SDS011;56257;52.196;13.870;2023-03-03T00:16:26;5.03;;;1.98;;
69150;SDS011;56257;52.196;13.870;2023-03-03T00:18:54;5.25;;;2.20;;
69150;SDS011;56257;52.196;13.870;2023-03-03T00:21:22;6.35;;;2.33;;
69150;SDS011;56257;52.196;13.870;2023-03-03T00:23:51;5.40;;;2.60;;
69150;SDS011;56257;52.196;13.870;2023-03-03T00:26:22;5.38;;;2.33;;
69150;SDS011;56257;52.196;13.870;2023-03-03T00:28:59;5.93;;;2.78;;
69150;SDS011;56257;52.196;13.870;2023-03-03T00:31:34;4.78;;;2.13;;
69150;SDS011;56257;52.196;13.870;2023-03-03T00:34:10;5.18;;;2.35;;
69150;SDS011;56257;52.196;13.870;2023-03-03T00:36:45;5.10;;;2.30;;
69150;SDS011;56257;52.196;13.870;2023-03-03T00:39:31;5.00;;;2.30;;
69150;SDS011;56257;52.196;13.870;2023-03-03T00:42:01;4.97;;;2.20;;
69150;SDS011;56257;52.196;13.870;2023-03-03T00:44:38;5.03;;;2.28;;
69150;SDS011;56257;52.196;13.870;2023-03-03T00:47:13;4.47;;;2.10;;
69150;SDS011;56257;52.196;13.870;2023-03-03T00:52:37;4.93;;;2.60;;
69150;SDS011;56257;52.196;13.870;2023-03-03T00:55:11;4.60;;;2.25;;
69150;SDS011;56257;52.196;13.870;2023-03-03T00:57:38;4.72;;;2.15;;
69150;SDS011;56257;52.196;13.870;2023-03-03T01:00:04;4.47;;;1.98;;
69150;SDS011;56257;52.196;13.870;2023-03-03T01:02:31;5.43;;;2.70;;
69150;SDS011;56257;52.196;13.870;2023-03-03T01:04:58;5.47;;;2.13;;
69150;SDS011;56257;52.196;13.870;2023-03-03T01:07:25;5.38;;;2.60;;
69150;SDS011;56257;52.196;13.870;2023-03-03T01:09:51;4.95;;;2.22;;
69150;SDS011;56257;52.196;13.870;2023-03-03T01:12:18;4.90;;;2.25;;
69150;SDS011;56257;52.196;13.870;2023-03-03T01:14:44;4.47;;;1.83;;
69150;SDS011;56257;52.196;13.870;2023-03-03T01:17:11;4.95;;;2.17;;
69150;SDS011;56257;52.196;13.870;2023-03-03T01:19:38;5.15;;;2.40;;
69150;SDS011;56257;52.196;13.870;2023-03-03T01:22:04;4.60;;;2.22;;
69150;SDS011;56257;52.196;13.870;2023-03-03T01:24:31;5.07;;;2.30;;
69150;SDS011;56257;52.196;13.870;2023-03-03T01:26:58;4.90;;;2.10;;
69150;SDS011;56257;52.196;13.870;2023-03-03T01:29:25;5.07;;;2.65;;
69150;SDS011;56257;52.196;13.870;2023-03-03T01:31:52;4.78;;;2.10;;
69150;SDS011;56257;52.196;13.870;2023-03-03T01:34:19;5.45;;;2.20;;
69150;SDS011;56257;52.196;13.870;2023-03-03T01:36:45;5.30;;;2.30;;
69150;SDS011;56257;52.196;13.870;2023-03-03T01:39:12;5.40;;;2.33;;
69150;SDS011;56257;52.196;13.870;2023-03-03T01:41:39;5.15;;;2.80;;
69150;SDS011;56257;52.196;13.870;2023-03-03T01:44:08;4.70;;;2.10;;
69150;SDS011;56257;52.196;13.870;2023-03-03T01:46:46;5.18;;;2.30;;
69150;SDS011;56257;52.196;13.870;2023-03-03T01:49:21;5.30;;;2.38;;
69150;SDS011;56257;52.196;13.870;2023-03-03T01:52:09;4.50;;;2.00;;
69150;SDS011;56257;52.196;13.870;2023-03-03T01:54:49;4.82;;;1.85;;
69150;SDS011;56257;52.196;13.870;2023-03-03T01:57:21;4.20;;;1.90;;
69150;SDS011;56257;52.196;13.870;2023-03-03T01:59:50;4.78;;;2.20;;
69150;SDS011;56257;52.196;13.870;2023-03-03T02:02:17;5.00;;;2.20;;
69150;SDS011;56257;52.196;13.870;2023-03-03T02:04:44;5.20;;;2.13;;
69150;SDS011;56257;52.196;13.870;2023-03-03T02:07:11;4.40;;;1.75;;
69150;SDS011;56257;52.196;13.870;2023-03-03T02:09:44;4.43;;;2.00;;
69150;SDS011;56257;52.196;13.870;2023-03-03T02:15:32;4.82;;;2.08;;
69150;SDS011;56257;52.196;13.870;2023-03-03T02:18:03;4.70;;;2.17;;
69150;SDS011;56257;52.196;13.870;2023-03-03T02:20:45;4.35;;;2.10;;
69150;SDS011;56257;52.196;13.870;2023-03-03T02:26:27;5.40;;;2.47;;
69150;SDS011;56257;52.196;13.870;2023-03-03T02:28:55;4.18;;;1.90;;
69150;SDS011;56257;52.196;13.870;2023-03-03T02:31:23;4.83;;;2.27;;
69150;SDS011;56257;52.196;13.870;2023-03-03T02:33:52;4.95;;;2.08;;
69150;SDS011;56257;52.196;13.870;2023-03-03T02:36:20;4.10;;;1.60;;
69150;SDS011;56257;52.196;13.870;2023-03-03T02:38:58;4.43;;;1.92;;
69150;SDS011;56257;52.196;13.870;2023-03-03T02:46:35;4.07;;;2.08;;
69150;SDS011;56257;52.196;13.870;2023-03-03T02:49:03;4.35;;;1.90;;
69150;SDS011;56257;52.196;13.870;2023-03-03T02:51:31;5.20;;;2.30;;
69150;SDS011;56257;52.196;13.870;2023-03-03T02:53:58;4.95;;;2.50;;
69150;SDS011;56257;52.196;13.870;2023-03-03T02:56:24;4.17;;;1.77;;
69150;SDS011;56257;52.196;13.870;2023-03-03T02:58:51;5.20;;;2.05;;
69150;SDS011;56257;52.196;13.870;2023-03-03T03:01:18;4.40;;;1.92;;
69150;SDS011;56257;52.196;13.870;2023-03-03T03:03:45;4.57;;;2.00;;
69150;SDS011;56257;52.196;13.870;2023-03-03T03:06:12;4.82;;;2.00;;
69150;SDS011;56257;52.196;13.870;2023-03-03T03:08:38;4.07;;;2.00;;
69150;SDS011;56257;52.196;13.870;2023-03-03T03:11:05;4.00;;;1.60;;
69150;SDS011;56257;52.196;13.870;2023-03-03T03:13:32;4.40;;;2.08;;
69150;SDS011;56257;52.196;13.870;2023-03-03T03:15:59;4.50;;;2.00;;
69150;SDS011;56257;52.196;13.870;2023-03-03T03:18:26;4.72;;;2.03;;
69150;SDS011;56257;52.196;13.870;2023-03-03T03:20:53;4.03;;;1.70;;
69150;SDS011;56257;52.196;13.870;2023-03-03T03:23:19;4.25;;;1.90;;
69150;SDS011;56257;52.196;13.870;2023-03-03T03:25:47;4.30;;;2.05;;
69150;SDS011;56257;52.196;13.870;2023-03-03T03:28:14;4.40;;;2.17;;
69150;SDS011;56257;52.196;13.870;2023-03-03T03:30:42;4.20;;;1.75;;
69150;SDS011;56257;52.196;13.870;2023-03-03T03:33:10;4.57;;;2.00;;
69150;SDS011;56257;52.196;13.870;2023-03-03T03:35:37;4.25;;;1.85;;
69150;SDS011;56257;52.196;13.870;2023-03-03T03:38:10;4.30;;;1.77;;
69150;SDS011;56257;52.196;13.870;2023-03-03T03:40:37;4.20;;;1.83;;
69150;SDS011;56257;52.196;13.870;2023-03-03T03:43:04;4.13;;;1.98;;
69150;SDS011;56257;52.196;13.870;2023-03-03T03:45:32;4.23;;;2.00;;
69150;SDS011;56257;52.196;13.870;2023-03-03T03:47:58;4.32;;;1.80;;
69150;SDS011;56257;52.196;13.870;2023-03-03T03:50:25;4.35;;;1.75;;
69150;SDS011;56257;52.196;13.870;2023-03-03T03:52:52;4.20;;;1.95;;
69150;SDS011;56257;52.196;13.870;2023-03-03T03:55:19;4.85;;;1.92;;
69150;SDS011;56257;52.196;13.870;2023-03-03T03:57:47;4.47;;;2.00;;
69150;SDS011;56257;52.196;13.870;2023-03-03T04:00:14;4.60;;;2.00;;
69150;SDS011;56257;52.196;13.870;2023-03-03T04:02:41;4.25;;;1.70;;
69150;SDS011;56257;52.196;13.870;2023-03-03T04:05:08;3.97;;;1.90;;
69150;SDS011;56257;52.196;13.870;2023-03-03T04:07:34;4.47;;;1.90;;
69150;SDS011;56257;52.196;13.870;2023-03-03T04:10:01;4.23;;;1.90;;
69150;SDS011;56257;52.196;13.870;2023-03-03T04:12:28;4.22;;;1.65;;
69150;SDS011;56257;52.196;13.870;2023-03-03T04:14:55;4.47;;;1.90;;
69150;SDS011;56257;52.196;13.870;2023-03-03T04:17:21;4.15;;;1.75;;
69150;SDS011;56257;52.196;13.870;2023-03-03T04:19:51;4.45;;;1.90;;
69150;SDS011;56257;52.196;13.870;2023-03-03T04:22:18;4.60;;;1.83;;
69150;SDS011;56257;52.196;13.870;2023-03-03T04:24:45;4.18;;;1.63;;
69150;SDS011;56257;52.196;13.870;2023-03-03T04:27:13;4.47;;;2.03;;
69150;SDS011;56257;52.196;13.870;2023-03-03T04:29:41;4.80;;;2.58;;
69150;SDS011;56257;52.196;13.870;2023-03-03T04:32:07;4.32;;;2.05;;
69150;SDS011;56257;52.196;13.870;2023-03-03T04:34:34;4.30;;;2.20;;
69150;SDS011;56257;52.196;13.870;2023-03-03T04:37:01;4.10;;;1.92;;
69150;SDS011;56257;52.196;13.870;2023-03-03T04:39:28;4.07;;;1.75;;
69150;SDS011;56257;52.196;13.870;2023-03-03T04:41:54;4.10;;;1.95;;
69150;SDS011;56257;52.196;13.870;2023-03-03T04:44:21;3.90;;;1.77;;
69150;SDS011;56257;52.196;13.870;2023-03-03T04:46:48;5.00;;;2.17;;
69150;SDS011;56257;52.196;13.870;2023-03-03T04:49:14;4.28;;;1.83;;
69150;SDS011;56257;52.196;13.870;2023-03-03T04:51:41;4.28;;;1.70;;
69150;SDS011;56257;52.196;13.870;2023-03-03T04:54:07;4.30;;;1.55;;
69150;SDS011;56257;52.196;13.870;2023-03-03T04:56:34;4.15;;;1.85;;
69150;SDS011;56257;52.196;13.870;2023-03-03T04:59:00;4.40;;;1.80;;
69150;SDS011;56257;52.196;13.870;2023-03-03T05:01:27;4.30;;;1.90;;
69150;SDS011;56257;52.196;13.870;2023-03-03T05:03:54;4.43;;;2.00;;
69150;SDS011;56257;52.196;13.870;2023-03-03T05:06:20;4.47;;;2.10;;
69150;SDS011;56257;52.196;13.870;2023-03-03T05:08:47;4.10;;;1.70;;
69150;SDS011;56257;52.196;13.870;2023-03-03T05:11:13;4.80;;;2.10;;
69150;SDS011;56257;52.196;13.870;2023-03-03T05:13:40;4.72;;;1.80;;
69150;SDS011;56257;52.196;13.870;2023-03-03T05:16:07;4.50;;;2.10;;
69150;SDS011;56257;52.196;13.870;2023-03-03T05:18:34;4.07;;;2.00;;
69150;SDS011;56257;52.196;13.870;2023-03-03T05:21:00;4.45;;;1.92;;
69150;SDS011;56257;52.196;13.870;2023-03-03T05:23:27;4.50;;;1.87;;
69150;SDS011;56257;52.196;13.870;2023-03-03T05:25:54;4.88;;;2.05;;
69150;SDS011;56257;52.196;13.870;2023-03-03T05:28:21;4.20;;;1.88;;
69150;SDS011;56257;52.196;13.870;2023-03-03T05:30:47;4.60;;;1.88;;
69150;SDS011;56257;52.196;13.870;2023-03-03T05:33:15;4.38;;;1.77;;
69150;SDS011;56257;52.196;13.870;2023-03-03T05:35:42;4.07;;;1.87;;
69150;SDS011;56257;52.196;13.870;2023-03-03T05:38:09;3.97;;;1.58;;
69150;SDS011;56257;52.196;13.870;2023-03-03T05:40:36;4.68;;;2.05;;
69150;SDS011;56257;52.196;13.870;2023-03-03T05:43:03;4.70;;;2.03;;
69150;SDS011;56257;52.196;13.870;2023-03-03T05:45:30;4.80;;;2.13;;
69150;SDS011;56257;52.196;13.870;2023-03-03T05:47:57;4.97;;;2.57;;
69150;SDS011;56257;52.196;13.870;2023-03-03T05:50:23;4.63;;;2.20;;
69150;SDS011;56257;52.196;13.870;2023-03-03T05:52:50;4.20;;;1.80;;
69150;SDS011;56257;52.196;13.870;2023-03-03T05:55:18;4.28;;;2.20;;
69150;SDS011;56257;52.196;13.870;2023-03-03T05:57:45;5.10;;;2.40;;
69150;SDS011;56257;52.196;13.870;2023-03-03T06:00:12;4.43;;;2.10;;
69150;SDS011;56257;52.196;13.870;2023-03-03T06:02:39;4.15;;;1.75;;
69150;SDS011;56257;52.196;13.870;2023-03-03T06:05:07;4.82;;;2.15;;
69150;SDS011;56257;52.196;13.870;2023-03-03T06:07:34;4.43;;;1.98;;
69150;SDS011;56257;52.196;13.870;2023-03-03T06:10:01;4.40;;;1.73;;
69150;SDS011;56257;52.196;13.870;2023-03-03T06:12:28;4.73;;;2.30;;
69150;SDS011;56257;52.196;13.870;2023-03-03T06:14:55;4.85;;;2.05;;
69150;SDS011;56257;52.196;13.870;2023-03-03T06:17:21;4.95;;;2.00;;
69150;SDS011;56257;52.196;13.870;2023-03-03T06:19:48;4.85;;;2.25;;
69150;SDS011;56257;52.196;13.870;2023-03-03T06:22:14;4.65;;;2.10;;
69150;SDS011;56257;52.196;13.870;2023-03-03T06:24:41;4.33;;;2.20;;
69150;SDS011;56257;52.196;13.870;2023-03-03T06:27:08;4.68;;;2.08;;
69150;SDS011;56257;52.196;13.870;2023-03-03T06:29:35;5.05;;;2.20;;
69150;SDS011;56257;52.196;13.870;2023-03-03T06:32:01;4.63;;;2.10;;
69150;SDS011;56257;52.196;13.870;2023-03-03T06:34:28;4.60;;;2.30;;
69150;SDS011;56257;52.196;13.870;2023-03-03T06:36:55;5.23;;;2.43;;
69150;SDS011;56257;52.196;13.870;2023-03-03T06:39:22;4.80;;;2.17;;
69150;SDS011;56257;52.196;13.870;2023-03-03T06:41:48;4.38;;;1.90;;
69150;SDS011;56257;52.196;13.870;2023-03-03T06:44:15;4.57;;;2.25;;
69150;SDS011;56257;52.196;13.870;2023-03-03T06:46:42;5.60;;;2.60;;
69150;SDS011;56257;52.196;13.870;2023-03-03T06:49:09;4.63;;;2.17;;
69150;SDS011;56257;52.196;13.870;2023-03-03T06:51:36;4.32;;;2.08;;
69150;SDS011;56257;52.196;13.870;2023-03-03T06:56:42;4.60;;;2.35;;
69150;SDS011;56257;52.196;13.870;2023-03-03T06:59:13;4.95;;;2.20;;
69150;SDS011;56257;52.196;13.870;2023-03-03T07:01:44;5.40;;;2.67;;
69150;SDS011;56257;52.196;13.870;2023-03-03T07:06:44;4.10;;;1.92;;
69150;SDS011;56257;52.196;13.870;2023-03-03T07:09:18;4.43;;;2.10;;
69150;SDS011;56257;52.196;13.870;2023-03-03T07:11:47;4.65;;;2.13;;
69150;SDS011;56257;52.196;13.870;2023-03-03T07:14:15;4.20;;;1.77;;
69150;SDS011;56257;52.196;13.870;2023-03-03T07:16:43;4.57;;;1.80;;
69150;SDS011;56257;52.196;13.870;2023-03-03T07:19:16;4.32;;;1.95;;
69150;SDS011;56257;52.196;13.870;2023-03-03T07:21:44;4.32;;;2.03;;
69150;SDS011;56257;52.196;13.870;2023-03-03T07:24:24;4.45;;;2.35;;
69150;SDS011;56257;52.196;13.870;2023-03-03T07:29:35;5.03;;;2.40;;
69150;SDS011;56257;52.196;13.870;2023-03-03T07:32:05;4.47;;;2.13;;
69150;SDS011;56257;52.196;13.870;2023-03-03T07:34:59;4.72;;;2.25;;
69150;SDS011;56257;52.196;13.870;2023-03-03T07:37:28;4.40;;;2.08;;
69150;SDS011;56257;52.196;13.870;2023-03-03T07:39:57;4.90;;;2.00;;
69150;SDS011;56257;52.196;13.870;2023-03-03T07:45:03;4.70;;;2.03;;
69150;SDS011;56257;52.196;13.870;2023-03-03T07:47:47;4.20;;;1.88;;
69150;SDS011;56257;52.196;13.870;2023-03-03T07:50:15;4.30;;;2.03;;
69150;SDS011;56257;52.196;13.870;2023-03-03T07:52:53;4.97;;;2.50;;
69150;SDS011;56257;52.196;13.870;2023-03-03T08:03:15;4.07;;;2.00;;
69150;SDS011;56257;52.196;13.870;2023-03-03T08:05:43;4.30;;;2.10;;
69150;SDS011;56257;52.196;13.870;2023-03-03T08:10:51;5.07;;;2.00;;
69150;SDS011;56257;52.196;13.870;2023-03-03T08:13:20;5.70;;;2.50;;
69150;SDS011;56257;52.196;13.870;2023-03-03T08:15:48;4.75;;;2.20;;
69150;SDS011;56257;52.196;13.870;2023-03-03T08:18:35;4.93;;;2.10;;
69150;SDS011;56257;52.196;13.870;2023-03-03T08:23:34;4.57;;;2.08;;
69150;SDS011;56257;52.196;13.870;2023-03-03T08:26:01;4.63;;;2.00;;
69150;SDS011;56257;52.196;13.870;2023-03-03T08:28:27;4.32;;;2.00;;
69150;SDS011;56257;52.196;13.870;2023-03-03T08:30:54;5.03;;;2.03;;
69150;SDS011;56257;52.196;13.870;2023-03-03T08:33:41;4.07;;;1.70;;
69150;SDS011;56257;52.196;13.870;2023-03-03T08:36:07;3.90;;;1.70;;
69150;SDS011;56257;52.196;13.870;2023-03-03T08:38:34;4.22;;;2.00;;
69150;SDS011;56257;52.196;13.870;2023-03-03T08:41:02;4.30;;;2.20;;
69150;SDS011;56257;52.196;13.870;2023-03-03T08:43:29;3.87;;;2.00;;
69150;SDS011;56257;52.196;13.870;2023-03-03T08:45:58;4.45;;;2.10;;
69150;SDS011;56257;52.196;13.870;2023-03-03T08:48:26;4.20;;;2.00;;
69150;SDS011;56257;52.196;13.870;2023-03-03T08:50:53;4.32;;;1.83;;
69150;SDS011;56257;52.196;13.870;2023-03-03T08:53:34;4.50;;;2.28;;
69150;SDS011;56257;52.196;13.870;2023-03-03T08:56:02;4.20;;;2.28;;
69150;SDS011;56257;52.196;13.870;2023-03-03T08:58:29;3.97;;;1.60;;
69150;SDS011;56257;52.196;13.870;2023-03-03T09:01:01;4.13;;;1.80;;
69150;SDS011;56257;52.196;13.870;2023-03-03T09:03:28;4.30;;;1.67;;
69150;SDS011;56257;52.196;13.870;2023-03-03T09:05:55;4.07;;;1.77;;
69150;SDS011;56257;52.196;13.870;2023-03-03T09:08:22;3.90;;;1.70;;
69150;SDS011;56257;52.196;13.870;2023-03-03T09:10:48;4.38;;;1.80;;
69150;SDS011;56257;52.196;13.870;2023-03-03T09:13:16;4.30;;;1.80;;
69150;SDS011;56257;52.196;13.870;2023-03-03T09:15:44;5.28;;;2.20;;
69150;SDS011;56257;52.196;13.870;2023-03-03T09:20:49;4.65;;;1.90;;
69150;SDS011;56257;52.196;13.870;2023-03-03T09:23:23;4.03;;;1.88;;
69150;SDS011;56257;52.196;13.870;2023-03-03T09:28:48;4.75;;;1.90;;
69150;SDS011;56257;52.196;13.870;2023-03-03T09:31:23;4.13;;;1.77;;
69150;SDS011;56257;52.196;13.870;2023-03-03T09:33:52;3.88;;;1.83;;
69150;SDS011;56257;52.196;13.870;2023-03-03T09:36:56;4.05;;;1.80;;
69150;SDS011;56257;52.196;13.870;2023-03-03T09:55:33;4.15;;;2.10;;
69150;SDS011;56257;52.196;13.870;2023-03-03T10:07:05;4.07;;;1.73;;
69150;SDS011;56257;52.196;13.870;2023-03-03T10:12:09;4.40;;;2.00;;
69150;SDS011;56257;52.196;13.870;2023-03-03T10:23:18;4.35;;;1.70;;
69150;SDS011;56257;52.196;13.870;2023-03-03T10:25:53;3.97;;;1.73;;
69150;SDS011;56257;52.196;13.870;2023-03-03T10:34:18;4.87;;;1.70;;
69150;SDS011;56257;52.196;13.870;2023-03-03T10:47:49;4.10;;;1.57;;
69150;SDS011;56257;52.196;13.870;2023-03-03T10:50:29;4.00;;;1.70;;
69150;SDS011;56257;52.196;13.870;2023-03-03T10:53:28;4.18;;;1.85;;
69150;SDS011;56257;52.196;13.870;2023-03-03T11:01:42;4.23;;;1.80;;
69150;SDS011;56257;52.196;13.870;2023-03-03T11:06:50;4.13;;;1.80;;
69150;SDS011;56257;52.196;13.870;2023-03-03T11:09:26;4.43;;;1.92;;
69150;SDS011;56257;52.196;13.870;2023-03-03T11:14:50;4.23;;;1.53;;
69150;SDS011;56257;52.196;13.870;2023-03-03T11:17:42;4.70;;;1.80;;
69150;SDS011;56257;52.196;13.870;2023-03-03T11:20:39;4.00;;;1.70;;
69150;SDS011;56257;52.196;13.870;2023-03-03T11:31:25;3.90;;;1.83;;
69150;SDS011;56257;52.196;13.870;2023-03-03T11:36:48;4.10;;;1.70;;
69150;SDS011;56257;52.196;13.870;2023-03-03T11:39:21;4.57;;;1.88;;
69150;SDS011;56257;52.196;13.870;2023-03-03T11:42:05;3.90;;;1.60;;
69150;SDS011;56257;52.196;13.870;2023-03-03T11:44:46;4.32;;;1.67;;
69150;SDS011;56257;52.196;13.870;2023-03-03T11:47:17;4.07;;;1.70;;
69150;SDS011;56257;52.196;13.870;2023-03-03T11:50:01;4.82;;;1.90;;
69150;SDS011;56257;52.196;13.870;2023-03-03T11:52:37;4.00;;;1.58;;
69150;SDS011;56257;52.196;13.870;2023-03-03T11:58:20;3.92;;;1.60;;
69150;SDS011;56257;52.196;13.870;2023-03-03T12:01:06;3.95;;;1.65;;
69150;SDS011;56257;52.196;13.870;2023-03-03T12:03:46;4.53;;;1.70;;
69150;SDS011;56257;52.196;13.870;2023-03-03T12:12:14;4.15;;;1.60;;
69150;SDS011;56257;52.196;13.870;2023-03-03T12:25:42;4.05;;;1.67;;
69150;SDS011;56257;52.196;13.870;2023-03-03T12:28:18;4.75;;;1.95;;
69150;SDS011;56257;52.196;13.870;2023-03-03T12:30:58;4.00;;;1.50;;
69150;SDS011;56257;52.196;13.870;2023-03-03T12:33:48;4.60;;;1.85;;
69150;SDS011;56257;52.196;13.870;2023-03-03T12:36:35;4.00;;;1.60;;
69150;SDS011;56257;52.196;13.870;2023-03-03T12:55:04;3.70;;;1.60;;
69150;SDS011;56257;52.196;13.870;2023-03-03T13:00:50;3.42;;;1.40;;
69150;SDS011;56257;52.196;13.870;2023-03-03T13:06:28;4.10;;;1.60;;
69150;SDS011;56257;52.196;13.870;2023-03-03T13:11:44;4.07;;;1.58;;
69150;SDS011;56257;52.196;13.870;2023-03-03T13:17:14;4.30;;;1.70;;
69150;SDS011;56257;52.196;13.870;2023-03-03T13:20:00;3.55;;;1.38;;
69150;SDS011;56257;52.196;13.870;2023-03-03T13:22:37;3.85;;;1.73;;
69150;SDS011;56257;52.196;13.870;2023-03-03T13:25:41;4.15;;;1.42;;
69150;SDS011;56257;52.196;13.870;2023-03-03T13:28:09;4.50;;;1.67;;
69150;SDS011;56257;52.196;13.870;2023-03-03T13:30:46;4.43;;;1.40;;
69150;SDS011;56257;52.196;13.870;2023-03-03T13:33:25;3.78;;;1.48;;
69150;SDS011;56257;52.196;13.870;2023-03-03T13:35:55;3.42;;;1.35;;
69150;SDS011;56257;52.196;13.870;2023-03-03T13:38:31;3.80;;;1.33;;
69150;SDS011;56257;52.196;13.870;2023-03-03T13:41:15;4.15;;;1.52;;
69150;SDS011;56257;52.196;13.870;2023-03-03T13:43:50;4.13;;;1.77;;
69150;SDS011;56257;52.196;13.870;2023-03-03T13:46:25;3.40;;;1.40;;
69150;SDS011;56257;52.196;13.870;2023-03-03T13:52:27;3.95;;;1.48;;
69150;SDS011;56257;52.196;13.870;2023-03-03T14:05:44;3.70;;;1.45;;
69150;SDS011;56257;52.196;13.870;2023-03-03T14:10:58;3.57;;;1.20;;
69150;SDS011;56257;52.196;13.870;2023-03-03T14:16:08;3.90;;;1.40;;
69150;SDS011;56257;52.196;13.870;2023-03-03T14:26:44;3.67;;;1.58;;
69150;SDS011;56257;52.196;13.870;2023-03-03T14:29:18;3.80;;;1.48;;
69150;SDS011;56257;52.196;13.870;2023-03-03T14:31:55;3.72;;;1.40;;
69150;SDS011;56257;52.196;13.870;2023-03-03T14:36:49;3.70;;;1.33;;
69150;SDS011;56257;52.196;13.870;2023-03-03T14:40:03;3.63;;;1.40;;
69150;SDS011;56257;52.196;13.870;2023-03-03T14:45:33;3.72;;;1.30;;
69150;SDS011;56257;52.196;13.870;2023-03-03T14:48:05;3.65;;;1.45;;
69150;SDS011;56257;52.196;13.870;2023-03-03T14:50:58;3.60;;;1.20;;
69150;SDS011;56257;52.196;13.870;2023-03-03T14:53:33;3.90;;;1.50;;
69150;SDS011;56257;52.196;13.870;2023-03-03T14:58:47;4.47;;;1.40;;
69150;SDS011;56257;52.196;13.870;2023-03-03T15:04:00;4.13;;;1.70;;
69150;SDS011;56257;52.196;13.870;2023-03-03T15:06:51;3.58;;;1.30;;
69150;SDS011;56257;52.196;13.870;2023-03-03T15:09:19;3.60;;;1.50;;
69150;SDS011;56257;52.196;13.870;2023-03-03T15:11:52;3.55;;;1.30;;
69150;SDS011;56257;52.196;13.870;2023-03-03T15:14:24;3.85;;;1.73;;
69150;SDS011;56257;52.196;13.870;2023-03-03T15:17:10;3.60;;;1.30;;
69150;SDS011;56257;52.196;13.870;2023-03-03T15:19:52;3.95;;;1.52;;
69150;SDS011;56257;52.196;13.870;2023-03-03T15:22:31;4.05;;;1.50;;
69150;SDS011;56257;52.196;13.870;2023-03-03T15:25:10;3.67;;;1.48;;
69150;SDS011;56257;52.196;13.870;2023-03-03T15:28:03;3.63;;;1.70;;
69150;SDS011;56257;52.196;13.870;2023-03-03T15:30:50;3.80;;;1.40;;
69150;SDS011;56257;52.196;13.870;2023-03-03T15:33:23;3.45;;;1.30;;
69150;SDS011;56257;52.196;13.870;2023-03-03T15:36:59;4.15;;;1.60;;
69150;SDS011;56257;52.196;13.870;2023-03-03T15:58:21;3.53;;;1.30;;
69150;SDS011;56257;52.196;13.870;2023-03-03T16:00:56;4.43;;;1.48;;
69150;SDS011;56257;52.196;13.870;2023-03-03T16:03:56;3.63;;;1.42;;
69150;SDS011;56257;52.196;13.870;2023-03-03T16:17:29;3.70;;;1.35;;
69150;SDS011;56257;52.196;13.870;2023-03-03T16:25:39;3.37;;;1.40;;
69150;SDS011;56257;52.196;13.870;2023-03-03T16:28:18;3.10;;;1.20;;
69150;SDS011;56257;52.196;13.870;2023-03-03T16:36:18;3.65;;;1.48;;
69150;SDS011;56257;52.196;13.870;2023-03-03T16:47:40;3.60;;;1.17;;
69150;SDS011;56257;52.196;13.870;2023-03-03T16:56:10;3.38;;;1.20;;
69150;SDS011;56257;52.196;13.870;2023-03-03T17:07:02;3.30;;;1.07;;
69150;SDS011;56257;52.196;13.870;2023-03-03T17:15:28;4.05;;;1.33;;
69150;SDS011;56257;52.196;13.870;2023-03-03T17:21:51;3.87;;;1.30;;
69150;SDS011;56257;52.196;13.870;2023-03-03T17:27:13;3.40;;;1.25;;
69150;SDS011;56257;52.196;13.870;2023-03-03T17:29:55;3.58;;;1.30;;
69150;SDS011;56257;52.196;13.870;2023-03-03T17:43:30;3.67;;;1.20;;
69150;SDS011;56257;52.196;13.870;2023-03-03T17:46:03;3.42;;;1.30;;
69150;SDS011;56257;52.196;13.870;2023-03-03T17:53:59;3.97;;;1.40;;
69150;SDS011;56257;52.196;13.870;2023-03-03T17:56:37;3.50;;;1.10;;
69150;SDS011;56257;52.196;13.870;2023-03-03T18:07:42;3.80;;;1.20;;
69150;SDS011;56257;52.196;13.870;2023-03-03T18:11:10;4.30;;;1.27;;
69150;SDS011;56257;52.196;13.870;2023-03-03T18:13:32;3.70;;;1.30;;
69150;SDS011;56257;52.196;13.870;2023-03-03T18:32:39;3.22;;;1.15;;
69150;SDS011;56257;52.196;13.870;2023-03-03T18:37:52;3.33;;;1.20;;
69150;SDS011;56257;52.196;13.870;2023-03-03T18:40:29;4.25;;;1.45;;
69150;SDS011;56257;52.196;13.870;2023-03-03T18:42:58;4.03;;;1.27;;
69150;SDS011;56257;52.196;13.870;2023-03-03T18:48:12;3.83;;;1.60;;
69150;SDS011;56257;52.196;13.870;2023-03-03T18:50:40;3.25;;;1.00;;
69150;SDS011;56257;52.196;13.870;2023-03-03T18:53:24;3.40;;;1.10;;
69150;SDS011;56257;52.196;13.870;2023-03-03T18:55:53;3.40;;;1.10;;
69150;SDS011;56257;52.196;13.870;2023-03-03T19:01:03;3.38;;;1.20;;
69150;SDS011;56257;52.196;13.870;2023-03-03T19:09:01;3.13;;;1.03;;
69150;SDS011;56257;52.196;13.870;2023-03-03T19:11:40;3.95;;;1.27;;
69150;SDS011;56257;52.196;13.870;2023-03-03T19:16:42;3.58;;;1.15;;
69150;SDS011;56257;52.196;13.870;2023-03-03T19:19:11;3.38;;;1.30;;
69150;SDS011;56257;52.196;13.870;2023-03-03T19:21:39;3.40;;;1.30;;
69150;SDS011;56257;52.196;13.870;2023-03-03T20:00:26;3.97;;;1.52;;
69150;SDS011;56257;52.196;13.870;2023-03-03T20:08:47;3.80;;;1.70;;
69150;SDS011;56257;52.196;13.870;2023-03-03T20:20:00;3.30;;;1.20;;
69150;SDS011;56257;52.196;13.870;2023-03-03T20:25:02;3.95;;;1.42;;
69150;SDS011;56257;52.196;13.870;2023-03-03T20:28:02;3.40;;;1.50;;
69150;SDS011;56257;52.196;13.870;2023-03-03T20:33:20;3.63;;;1.30;;
69150;SDS011;56257;52.196;13.870;2023-03-03T20:39:08;3.83;;;1.40;;
69150;SDS011;56257;52.196;13.870;2023-03-03T20:46:53;3.95;;;1.40;;
69150;SDS011;56257;52.196;13.870;2023-03-03T20:57:39;3.60;;;1.50;;
69150;SDS011;56257;52.196;13.870;2023-03-03T21:03:24;3.80;;;1.40;;
69150;SDS011;56257;52.196;13.870;2023-03-03T21:06:00;4.20;;;2.17;;
69150;SDS011;56257;52.196;13.870;2023-03-03T21:11:20;3.83;;;1.50;;
69150;SDS011;56257;52.196;13.870;2023-03-03T21:13:49;3.70;;;1.50;;
69150;SDS011;56257;52.196;13.870;2023-03-03T21:19:04;3.83;;;1.50;;
69150;SDS011;56257;52.196;13.870;2023-03-03T21:21:38;3.80;;;1.90;;
69150;SDS011;56257;52.196;13.870;2023-03-03T21:24:10;3.43;;;1.53;;
69150;SDS011;56257;52.196;13.870;2023-03-03T21:26:48;3.60;;;1.60;;
69150;SDS011;56257;52.196;13.870;2023-03-03T21:29:32;4.18;;;1.85;;
69150;SDS011;56257;52.196;13.870;2023-03-03T21:32:05;4.60;;;1.75;;
69150;SDS011;56257;52.196;13.870;2023-03-03T21:34:37;4.40;;;1.88;;
69150;SDS011;56257;52.196;13.870;2023-03-03T21:37:07;4.03;;;1.60;;
69150;SDS011;56257;52.196;13.870;2023-03-03T21:39:37;4.28;;;1.55;;
69150;SDS011;56257;52.196;13.870;2023-03-03T21:42:08;3.83;;;1.73;;
69150;SDS011;56257;52.196;13.870;2023-03-03T21:44:54;5.22;;;2.20;;
69150;SDS011;56257;52.196;13.870;2023-03-03T21:47:21;4.43;;;1.83;;
69150;SDS011;56257;52.196;13.870;2023-03-03T21:49:49;4.40;;;1.90;;
69150;SDS011;56257;52.196;13.870;2023-03-03T21:52:18;3.85;;;1.83;;
69150;SDS011;56257;52.196;13.870;2023-03-03T21:54:46;4.28;;;2.05;;
69150;SDS011;56257;52.196;13.870;2023-03-03T21:57:14;4.53;;;1.70;;
69150;SDS011;56257;52.196;13.870;2023-03-03T21:59:40;4.18;;;1.80;;
69150;SDS011;56257;52.196;13.870;2023-03-03T22:02:07;4.30;;;1.90;;